GLO2137 SBSL-SBSV
Flight info
| Callsign | GLO2137 |
|---|---|
| Flight time | 1h 49m |
| Altitude | 35000 |
| Route | ELIET UZ20 TNA DCT DORMU |
| Aircraft | B737/M-SDFGIKLORWXY/LB1 |
Departure
| Time | 2026-04-17 10:15 |
|---|---|
| Airport | Marechal Cunha Machado International Airport (SBSL) |
Arrival
| Time | 2026-04-17 12:05 |
|---|---|
| Airport | Deputado Luiz Eduardo Magalhães International Airport (SBSV) |
| Time | Latitude | Longitude | Altitude | Speed | Heading |
|---|---|---|---|---|---|
| 2026-04-17 09:59 | -2.58442 | -44.23657 | 163 ft | 0 kts | 340° |
| 2026-04-17 10:08 | -2.58454 | -44.23653 | 163 ft | 2 kts | 340° |
| 2026-04-17 10:08 | -2.58470 | -44.23647 | 163 ft | 2 kts | 340° |
| 2026-04-17 10:08 | -2.58485 | -44.23642 | 163 ft | 2 kts | 342° |
| 2026-04-17 10:08 | -2.58501 | -44.23639 | 163 ft | 2 kts | 21° |
| 2026-04-17 10:09 | -2.58511 | -44.23645 | 163 ft | 1 kts | 65° |
| 2026-04-17 10:09 | -2.58512 | -44.23647 | 163 ft | 0 kts | 66° |
| 2026-04-17 10:11 | -2.58503 | -44.23626 | 163 ft | 6 kts | 66° |
| 2026-04-17 10:11 | -2.58478 | -44.23570 | 162 ft | 10 kts | 66° |
| 2026-04-17 10:11 | -2.58453 | -44.23508 | 162 ft | 10 kts | 73° |
| 2026-04-17 10:12 | -2.58447 | -44.23444 | 162 ft | 9 kts | 110° |
| 2026-04-17 10:12 | -2.58479 | -44.23389 | 162 ft | 9 kts | 103° |
| 2026-04-17 10:12 | -2.58453 | -44.23336 | 162 ft | 9 kts | 39° |
| 2026-04-17 10:12 | -2.58407 | -44.23297 | 162 ft | 9 kts | 39° |
| 2026-04-17 10:13 | -2.58361 | -44.23260 | 161 ft | 8 kts | 39° |
| 2026-04-17 10:13 | -2.58315 | -44.23222 | 160 ft | 10 kts | 39° |
| 2026-04-17 10:13 | -2.58255 | -44.23175 | 159 ft | 12 kts | 38° |
| 2026-04-17 10:13 | -2.58181 | -44.23117 | 159 ft | 14 kts | 38° |
| 2026-04-17 10:14 | -2.58128 | -44.23075 | 159 ft | 15 kts | 38° |
| 2026-04-17 10:14 | -2.58062 | -44.23061 | 159 ft | 9 kts | 8° |
| 2026-04-17 10:14 | -2.58068 | -44.23027 | 159 ft | 8 kts | 189° |
| 2026-04-17 10:14 | -2.58260 | -44.23180 | 159 ft | 68 kts | 219° |
| 2026-04-17 10:15 | -2.58818 | -44.23631 | 162 ft | 135 kts | 219° |
| 2026-04-17 10:15 | -2.59380 | -44.24082 | 192 ft | 169 kts | 218° |
| 2026-04-17 10:15 | -2.60334 | -44.24846 | 750 ft | 180 kts | 219° |
| 2026-04-17 10:15 | -2.61315 | -44.25657 | 1437 ft | 189 kts | 220° |
| 2026-04-17 10:16 | -2.62311 | -44.26480 | 2307 ft | 190 kts | 218° |
| 2026-04-17 10:16 | -2.63435 | -44.27375 | 2640 ft | 223 kts | 217° |
| 2026-04-17 10:16 | -2.64900 | -44.28074 | 2944 ft | 244 kts | 185° |
| 2026-04-17 10:16 | -2.66585 | -44.27817 | 3444 ft | 256 kts | 148° |
| 2026-04-17 10:17 | -2.67795 | -44.26541 | 4219 ft | 258 kts | 112° |
| 2026-04-17 10:17 | -2.68284 | -44.24807 | 5184 ft | 260 kts | 109° |
| 2026-04-17 10:17 | -2.69230 | -44.23259 | 6087 ft | 267 kts | 136° |
| 2026-04-17 10:17 | -2.70755 | -44.22189 | 7049 ft | 270 kts | 146° |
| 2026-04-17 10:18 | -2.72370 | -44.21186 | 7900 ft | 276 kts | 146° |
| 2026-04-17 10:18 | -2.74011 | -44.20160 | 8715 ft | 281 kts | 146° |
| 2026-04-17 10:18 | -2.75671 | -44.19098 | 9552 ft | 285 kts | 145° |
| 2026-04-17 10:18 | -2.77328 | -44.18017 | 10256 ft | 294 kts | 144° |
| 2026-04-17 10:19 | -2.79135 | -44.16817 | 10471 ft | 320 kts | 144° |
| 2026-04-17 10:19 | -2.81024 | -44.15550 | 11011 ft | 332 kts | 144° |
| 2026-04-17 10:19 | -2.82955 | -44.14245 | 11734 ft | 337 kts | 144° |
| 2026-04-17 10:19 | -2.84910 | -44.12918 | 12495 ft | 342 kts | 144° |
| 2026-04-17 10:20 | -2.86893 | -44.11567 | 13230 ft | 347 kts | 144° |
| 2026-04-17 10:20 | -2.88896 | -44.10200 | 13983 ft | 351 kts | 144° |
| 2026-04-17 10:20 | -2.90925 | -44.08814 | 14733 ft | 355 kts | 144° |
| 2026-04-17 10:20 | -2.92972 | -44.07414 | 15451 ft | 359 kts | 144° |
| 2026-04-17 10:21 | -2.95046 | -44.05996 | 16162 ft | 363 kts | 144° |
| 2026-04-17 10:21 | -2.97146 | -44.04559 | 16850 ft | 367 kts | 144° |
| 2026-04-17 10:21 | -2.99265 | -44.03108 | 17528 ft | 371 kts | 144° |
| 2026-04-17 10:21 | -3.01375 | -44.01665 | 18176 ft | 375 kts | 144° |
| 2026-04-17 10:22 | -3.03542 | -44.00182 | 18808 ft | 379 kts | 144° |
| 2026-04-17 10:22 | -3.05731 | -43.98684 | 19431 ft | 383 kts | 144° |
| 2026-04-17 10:22 | -3.07939 | -43.97173 | 20043 ft | 386 kts | 144° |
| 2026-04-17 10:22 | -3.10169 | -43.95646 | 20632 ft | 390 kts | 144° |
| 2026-04-17 10:23 | -3.12421 | -43.94105 | 21193 ft | 393 kts | 144° |
| 2026-04-17 10:23 | -3.14686 | -43.92554 | 21730 ft | 397 kts | 144° |
| 2026-04-17 10:23 | -3.16976 | -43.90988 | 22252 ft | 400 kts | 144° |
| 2026-04-17 10:23 | -3.19351 | -43.89494 | 22746 ft | 404 kts | 148° |
| 2026-04-17 10:24 | -3.21799 | -43.88090 | 23227 ft | 408 kts | 149° |
| 2026-04-17 10:24 | -3.24295 | -43.86705 | 23695 ft | 411 kts | 149° |
| 2026-04-17 10:24 | -3.26812 | -43.85312 | 24140 ft | 414 kts | 149° |
| 2026-04-17 10:24 | -3.29337 | -43.83904 | 24567 ft | 418 kts | 149° |
| 2026-04-17 10:25 | -3.31884 | -43.82471 | 25001 ft | 420 kts | 149° |
| 2026-04-17 10:25 | -3.34442 | -43.81023 | 25424 ft | 423 kts | 149° |
| 2026-04-17 10:25 | -3.36973 | -43.79583 | 25828 ft | 426 kts | 149° |
| 2026-04-17 10:25 | -3.39554 | -43.78113 | 26228 ft | 428 kts | 149° |
| 2026-04-17 10:26 | -3.42158 | -43.76628 | 26616 ft | 431 kts | 149° |
| 2026-04-17 10:26 | -3.44775 | -43.75135 | 26996 ft | 433 kts | 150° |
| 2026-04-17 10:26 | -3.47402 | -43.73637 | 27369 ft | 436 kts | 150° |
| 2026-04-17 10:26 | -3.50041 | -43.72132 | 27723 ft | 438 kts | 150° |
| 2026-04-17 10:27 | -3.52699 | -43.70617 | 28087 ft | 441 kts | 150° |
| 2026-04-17 10:27 | -3.55371 | -43.69093 | 28435 ft | 443 kts | 150° |
| 2026-04-17 10:27 | -3.58059 | -43.67560 | 28766 ft | 445 kts | 150° |
| 2026-04-17 10:27 | -3.60759 | -43.66020 | 29098 ft | 448 kts | 150° |
| 2026-04-17 10:28 | -3.63469 | -43.64475 | 29416 ft | 450 kts | 150° |
| 2026-04-17 10:28 | -3.66200 | -43.62916 | 29714 ft | 453 kts | 150° |
| 2026-04-17 10:28 | -3.68939 | -43.61348 | 30034 ft | 455 kts | 150° |
| 2026-04-17 10:28 | -3.71692 | -43.59768 | 30358 ft | 456 kts | 150° |
| 2026-04-17 10:29 | -3.74418 | -43.58203 | 30660 ft | 458 kts | 150° |
| 2026-04-17 10:29 | -3.77188 | -43.56612 | 30937 ft | 460 kts | 150° |
| 2026-04-17 10:29 | -3.79971 | -43.55015 | 31215 ft | 462 kts | 150° |
| 2026-04-17 10:29 | -3.82763 | -43.53412 | 31479 ft | 464 kts | 150° |
| 2026-04-17 10:30 | -3.85569 | -43.51801 | 31744 ft | 466 kts | 150° |
| 2026-04-17 10:30 | -3.88388 | -43.50183 | 32002 ft | 467 kts | 150° |
| 2026-04-17 10:30 | -3.91216 | -43.48558 | 32253 ft | 469 kts | 150° |
| 2026-04-17 10:30 | -3.94054 | -43.46929 | 32522 ft | 470 kts | 150° |
| 2026-04-17 10:31 | -3.96886 | -43.45303 | 32877 ft | 469 kts | 150° |
| 2026-04-17 10:31 | -3.99710 | -43.43680 | 33275 ft | 467 kts | 150° |
| 2026-04-17 10:31 | -4.02523 | -43.42065 | 33649 ft | 465 kts | 151° |
| 2026-04-17 10:31 | -4.05331 | -43.40453 | 33968 ft | 465 kts | 151° |
| 2026-04-17 10:32 | -4.08143 | -43.38846 | 34291 ft | 465 kts | 151° |
| 2026-04-17 10:32 | -4.10951 | -43.37245 | 34661 ft | 464 kts | 151° |
| 2026-04-17 10:32 | -4.13761 | -43.35643 | 34836 ft | 463 kts | 152° |
| 2026-04-17 10:33 | -4.19261 | -43.32505 | 34827 ft | 447 kts | 152° |
| 2026-04-17 10:33 | -4.24615 | -43.29448 | 34845 ft | 445 kts | 152° |
| 2026-04-17 10:34 | -4.30008 | -43.26369 | 34839 ft | 446 kts | 152° |
| 2026-04-17 10:34 | -4.35403 | -43.23287 | 34837 ft | 446 kts | 152° |
| 2026-04-17 10:35 | -4.40810 | -43.20197 | 34836 ft | 447 kts | 152° |
| 2026-04-17 10:35 | -4.46214 | -43.17108 | 34835 ft | 447 kts | 152° |
| 2026-04-17 10:36 | -4.51600 | -43.14023 | 34834 ft | 448 kts | 152° |
| 2026-04-17 10:36 | -4.57013 | -43.10901 | 34832 ft | 448 kts | 152° |
| 2026-04-17 10:37 | -4.62423 | -43.07777 | 34834 ft | 449 kts | 152° |
| 2026-04-17 10:37 | -4.67838 | -43.04652 | 34832 ft | 449 kts | 152° |
| 2026-04-17 10:38 | -4.73224 | -43.01543 | 34834 ft | 449 kts | 152° |
| 2026-04-17 10:38 | -4.78675 | -42.98398 | 34832 ft | 449 kts | 152° |
| 2026-04-17 10:39 | -4.84073 | -42.95282 | 34833 ft | 450 kts | 152° |
| 2026-04-17 10:39 | -4.89493 | -42.92152 | 34833 ft | 450 kts | 152° |
| 2026-04-17 10:40 | -4.94920 | -42.89018 | 34832 ft | 450 kts | 152° |
| 2026-04-17 10:40 | -5.00352 | -42.85880 | 34832 ft | 450 kts | 152° |
| 2026-04-17 10:41 | -5.05743 | -42.82770 | 34834 ft | 449 kts | 153° |
| 2026-04-17 10:41 | -5.11430 | -42.80116 | 34835 ft | 447 kts | 159° |
| 2026-04-17 10:42 | -5.17186 | -42.77739 | 34839 ft | 447 kts | 160° |
| 2026-04-17 10:42 | -5.22946 | -42.75355 | 34830 ft | 448 kts | 159° |
| 2026-04-17 10:43 | -5.28654 | -42.72950 | 34836 ft | 448 kts | 159° |
| 2026-04-17 10:43 | -5.34402 | -42.70506 | 34832 ft | 448 kts | 159° |
| 2026-04-17 10:44 | -5.40149 | -42.68057 | 34834 ft | 448 kts | 159° |
| 2026-04-17 10:44 | -5.45891 | -42.65609 | 34831 ft | 448 kts | 159° |
| 2026-04-17 10:45 | -5.51637 | -42.63161 | 34831 ft | 448 kts | 159° |
| 2026-04-17 10:45 | -5.57386 | -42.60711 | 34835 ft | 449 kts | 159° |
| 2026-04-17 10:46 | -5.63140 | -42.58258 | 34834 ft | 449 kts | 159° |
| 2026-04-17 10:46 | -5.68776 | -42.55856 | 34832 ft | 449 kts | 160° |
| 2026-04-17 10:47 | -5.74541 | -42.53398 | 34837 ft | 449 kts | 160° |
| 2026-04-17 10:47 | -5.80302 | -42.50941 | 34832 ft | 450 kts | 160° |
| 2026-04-17 10:48 | -5.86067 | -42.48482 | 34837 ft | 450 kts | 160° |
| 2026-04-17 10:48 | -5.91830 | -42.46023 | 34832 ft | 450 kts | 160° |
| 2026-04-17 10:49 | -5.97592 | -42.43564 | 34842 ft | 450 kts | 160° |
| 2026-04-17 10:49 | -6.03323 | -42.41117 | 34845 ft | 450 kts | 160° |
| 2026-04-17 10:50 | -6.09099 | -42.38651 | 34843 ft | 451 kts | 160° |
| 2026-04-17 10:50 | -6.14871 | -42.36186 | 34844 ft | 451 kts | 160° |
| 2026-04-17 10:51 | -6.20650 | -42.33717 | 34842 ft | 451 kts | 160° |
| 2026-04-17 10:51 | -6.26422 | -42.31251 | 34843 ft | 451 kts | 160° |
| 2026-04-17 10:52 | -6.32197 | -42.28782 | 34845 ft | 451 kts | 160° |
| 2026-04-17 10:52 | -6.37931 | -42.26331 | 34847 ft | 450 kts | 160° |
| 2026-04-17 10:53 | -6.43689 | -42.23869 | 34856 ft | 450 kts | 160° |
| 2026-04-17 10:53 | -6.49451 | -42.21405 | 34846 ft | 450 kts | 160° |
| 2026-04-17 10:54 | -6.55214 | -42.18939 | 34856 ft | 449 kts | 160° |
| 2026-04-17 10:54 | -6.60964 | -42.16479 | 34847 ft | 449 kts | 160° |
| 2026-04-17 10:55 | -6.66704 | -42.14022 | 34858 ft | 448 kts | 160° |
| 2026-04-17 10:55 | -6.72441 | -42.11566 | 34861 ft | 448 kts | 160° |
| 2026-04-17 10:56 | -6.78171 | -42.09112 | 34857 ft | 447 kts | 160° |
| 2026-04-17 10:56 | -6.83889 | -42.06663 | 34862 ft | 447 kts | 160° |
| 2026-04-17 10:57 | -6.89611 | -42.04211 | 34861 ft | 446 kts | 160° |
| 2026-04-17 10:57 | -6.95323 | -42.01763 | 34864 ft | 446 kts | 160° |
| 2026-04-17 10:58 | -7.01024 | -41.99319 | 34868 ft | 445 kts | 160° |
| 2026-04-17 10:58 | -7.06733 | -41.96871 | 34862 ft | 446 kts | 160° |
| 2026-04-17 10:59 | -7.12404 | -41.94439 | 34880 ft | 447 kts | 160° |
| 2026-04-17 10:59 | -7.17199 | -41.92382 | 34873 ft | 447 kts | 160° |
| 2026-04-17 11:00 | -7.22932 | -41.89922 | 34876 ft | 448 kts | 160° |
| 2026-04-17 11:00 | -7.28670 | -41.87459 | 34894 ft | 448 kts | 160° |
| 2026-04-17 11:01 | -7.34373 | -41.85010 | 34900 ft | 448 kts | 160° |
| 2026-04-17 11:01 | -7.40117 | -41.82543 | 34907 ft | 449 kts | 160° |
| 2026-04-17 11:02 | -7.45863 | -41.80075 | 34910 ft | 449 kts | 160° |
| 2026-04-17 11:02 | -7.51610 | -41.77605 | 34905 ft | 448 kts | 160° |
| 2026-04-17 11:03 | -7.57348 | -41.75138 | 34909 ft | 448 kts | 160° |
| 2026-04-17 11:03 | -7.63079 | -41.72673 | 34908 ft | 447 kts | 160° |
| 2026-04-17 11:04 | -7.68793 | -41.70216 | 34915 ft | 446 kts | 160° |
| 2026-04-17 11:04 | -7.74491 | -41.67764 | 34917 ft | 445 kts | 160° |
| 2026-04-17 11:05 | -7.80175 | -41.65318 | 34917 ft | 444 kts | 160° |
| 2026-04-17 11:05 | -7.85853 | -41.62874 | 34921 ft | 444 kts | 160° |
| 2026-04-17 11:06 | -7.91541 | -41.60425 | 34938 ft | 443 kts | 160° |
| 2026-04-17 11:06 | -7.97218 | -41.57980 | 34946 ft | 444 kts | 160° |
| 2026-04-17 11:07 | -8.02898 | -41.55533 | 34943 ft | 444 kts | 160° |
| 2026-04-17 11:07 | -8.08583 | -41.53082 | 34945 ft | 444 kts | 160° |
| 2026-04-17 11:08 | -8.14271 | -41.50630 | 34946 ft | 444 kts | 160° |
| 2026-04-17 11:08 | -8.19960 | -41.48176 | 34943 ft | 445 kts | 160° |
| 2026-04-17 11:09 | -8.25643 | -41.45724 | 34941 ft | 445 kts | 160° |
| 2026-04-17 11:09 | -8.31345 | -41.43264 | 34946 ft | 445 kts | 160° |
| 2026-04-17 11:10 | -8.39882 | -41.39578 | 34953 ft | 445 kts | 160° |
| 2026-04-17 11:10 | -8.45569 | -41.37122 | 34955 ft | 445 kts | 160° |
| 2026-04-17 11:11 | -8.51274 | -41.34657 | 34956 ft | 445 kts | 160° |
| 2026-04-17 11:11 | -8.56978 | -41.32192 | 34953 ft | 445 kts | 159° |
| 2026-04-17 11:12 | -8.62681 | -41.29727 | 34954 ft | 445 kts | 159° |
| 2026-04-17 11:12 | -8.68372 | -41.27266 | 34955 ft | 445 kts | 159° |
| 2026-04-17 11:13 | -8.74029 | -41.24818 | 34962 ft | 444 kts | 159° |
| 2026-04-17 11:13 | -8.79709 | -41.22360 | 34966 ft | 444 kts | 159° |
| 2026-04-17 11:14 | -8.85383 | -41.19904 | 34960 ft | 444 kts | 159° |
| 2026-04-17 11:14 | -8.91058 | -41.17447 | 34964 ft | 443 kts | 159° |
| 2026-04-17 11:15 | -8.96727 | -41.14991 | 34963 ft | 443 kts | 159° |
| 2026-04-17 11:15 | -9.02391 | -41.12537 | 34964 ft | 442 kts | 159° |
| 2026-04-17 11:16 | -9.08053 | -41.10082 | 34963 ft | 442 kts | 158° |
| 2026-04-17 11:16 | -9.13722 | -41.07624 | 34964 ft | 442 kts | 158° |
| 2026-04-17 11:17 | -9.19338 | -41.05188 | 34963 ft | 441 kts | 158° |
| 2026-04-17 11:17 | -9.24984 | -41.02738 | 34964 ft | 441 kts | 158° |
| 2026-04-17 11:18 | -9.30319 | -41.00422 | 34963 ft | 441 kts | 158° |
| 2026-04-17 11:18 | -9.35960 | -40.97973 | 34963 ft | 441 kts | 158° |
| 2026-04-17 11:19 | -9.41599 | -40.95523 | 34962 ft | 440 kts | 158° |
| 2026-04-17 11:19 | -9.47229 | -40.93077 | 34965 ft | 440 kts | 158° |
| 2026-04-17 11:20 | -9.52860 | -40.90629 | 34963 ft | 440 kts | 158° |
| 2026-04-17 11:20 | -9.58449 | -40.88199 | 34962 ft | 440 kts | 158° |
| 2026-04-17 11:21 | -9.64081 | -40.85749 | 34964 ft | 440 kts | 158° |
| 2026-04-17 11:21 | -9.69702 | -40.83303 | 34962 ft | 440 kts | 158° |
| 2026-04-17 11:22 | -9.75331 | -40.80853 | 34965 ft | 440 kts | 157° |
| 2026-04-17 11:22 | -9.80960 | -40.78401 | 34970 ft | 440 kts | 157° |
| 2026-04-17 11:23 | -9.86585 | -40.75951 | 34975 ft | 440 kts | 157° |
| 2026-04-17 11:23 | -9.92210 | -40.73499 | 34971 ft | 440 kts | 157° |
| 2026-04-17 11:24 | -9.97848 | -40.71041 | 34973 ft | 441 kts | 157° |
| 2026-04-17 11:24 | -10.03481 | -40.68585 | 34974 ft | 441 kts | 157° |
| 2026-04-17 11:25 | -10.09122 | -40.66123 | 34974 ft | 440 kts | 157° |
| 2026-04-17 11:25 | -10.14741 | -40.63671 | 34968 ft | 439 kts | 156° |
| 2026-04-17 11:26 | -10.20348 | -40.61223 | 34972 ft | 438 kts | 156° |
| 2026-04-17 11:26 | -10.25951 | -40.58775 | 34972 ft | 438 kts | 156° |
| 2026-04-17 11:27 | -10.31511 | -40.56346 | 34973 ft | 437 kts | 156° |
| 2026-04-17 11:27 | -10.37110 | -40.53898 | 34973 ft | 438 kts | 156° |
| 2026-04-17 11:28 | -10.42716 | -40.51447 | 34973 ft | 438 kts | 156° |
| 2026-04-17 11:28 | -10.48310 | -40.49000 | 34973 ft | 438 kts | 156° |
| 2026-04-17 11:29 | -10.53922 | -40.46543 | 34973 ft | 439 kts | 156° |
| 2026-04-17 11:29 | -10.59529 | -40.44088 | 34977 ft | 439 kts | 156° |
| 2026-04-17 11:30 | -10.65142 | -40.41630 | 34985 ft | 439 kts | 156° |
| 2026-04-17 11:30 | -10.70715 | -40.39188 | 34979 ft | 438 kts | 156° |
| 2026-04-17 11:31 | -10.76318 | -40.36732 | 34981 ft | 438 kts | 156° |
| 2026-04-17 11:31 | -10.81922 | -40.34274 | 34980 ft | 438 kts | 156° |
| 2026-04-17 11:32 | -10.87521 | -40.31818 | 34981 ft | 438 kts | 156° |
| 2026-04-17 11:32 | -10.93118 | -40.29361 | 34985 ft | 437 kts | 156° |
| 2026-04-17 11:33 | -10.98702 | -40.26910 | 34982 ft | 437 kts | 156° |
| 2026-04-17 11:33 | -11.04250 | -40.24473 | 34983 ft | 437 kts | 156° |
| 2026-04-17 11:34 | -11.09837 | -40.22017 | 35000 ft | 436 kts | 156° |
| 2026-04-17 11:34 | -11.15415 | -40.19565 | 34986 ft | 436 kts | 156° |
| 2026-04-17 11:35 | -11.20993 | -40.17112 | 34990 ft | 436 kts | 156° |
| 2026-04-17 11:35 | -11.26576 | -40.14655 | 35002 ft | 436 kts | 156° |
| 2026-04-17 11:36 | -11.32160 | -40.12197 | 34993 ft | 436 kts | 156° |
| 2026-04-17 11:36 | -11.37700 | -40.09757 | 34989 ft | 436 kts | 156° |
| 2026-04-17 11:37 | -11.43308 | -40.07286 | 34998 ft | 436 kts | 156° |
| 2026-04-17 11:37 | -11.48851 | -40.04843 | 34996 ft | 436 kts | 155° |
| 2026-04-17 11:38 | -11.54426 | -40.02384 | 34997 ft | 436 kts | 155° |
| 2026-04-17 11:38 | -11.59947 | -39.99821 | 34980 ft | 435 kts | 146° |
| 2026-04-17 11:39 | -11.64624 | -39.95942 | 34998 ft | 434 kts | 138° |
| 2026-04-17 11:39 | -11.69150 | -39.91859 | 34999 ft | 435 kts | 138° |
| 2026-04-17 11:40 | -11.73707 | -39.87797 | 34987 ft | 435 kts | 138° |
| 2026-04-17 11:40 | -11.77530 | -39.84434 | 34989 ft | 436 kts | 139° |
| 2026-04-17 11:41 | -11.82135 | -39.80404 | 34986 ft | 436 kts | 139° |
| 2026-04-17 11:41 | -11.86765 | -39.76354 | 34997 ft | 443 kts | 139° |
| 2026-04-17 11:42 | -11.91493 | -39.72214 | 34991 ft | 456 kts | 139° |
| 2026-04-17 11:42 | -11.93919 | -39.70089 | 34777 ft | 463 kts | 139° |
| 2026-04-17 11:42 | -11.96405 | -39.67911 | 33999 ft | 472 kts | 139° |
| 2026-04-17 11:43 | -11.98891 | -39.65732 | 33197 ft | 471 kts | 138° |
| 2026-04-17 11:43 | -12.01381 | -39.63549 | 32328 ft | 471 kts | 139° |
| 2026-04-17 11:43 | -12.03869 | -39.61368 | 31598 ft | 468 kts | 139° |
| 2026-04-17 11:43 | -12.06326 | -39.59213 | 30984 ft | 462 kts | 139° |
| 2026-04-17 11:44 | -12.08756 | -39.57082 | 30361 ft | 457 kts | 139° |
| 2026-04-17 11:44 | -12.11155 | -39.54977 | 29760 ft | 452 kts | 139° |
| 2026-04-17 11:44 | -12.13522 | -39.52899 | 29139 ft | 446 kts | 139° |
| 2026-04-17 11:44 | -12.15870 | -39.50838 | 28515 ft | 441 kts | 139° |
| 2026-04-17 11:45 | -12.18184 | -39.48805 | 27897 ft | 436 kts | 139° |
| 2026-04-17 11:45 | -12.20478 | -39.46790 | 27278 ft | 432 kts | 139° |
| 2026-04-17 11:45 | -12.22744 | -39.44799 | 26659 ft | 428 kts | 139° |
| 2026-04-17 11:45 | -12.24991 | -39.42824 | 26052 ft | 424 kts | 139° |
| 2026-04-17 11:46 | -12.27221 | -39.40863 | 25443 ft | 420 kts | 139° |
| 2026-04-17 11:46 | -12.29429 | -39.38921 | 24832 ft | 416 kts | 139° |
| 2026-04-17 11:46 | -12.31591 | -39.37019 | 24237 ft | 413 kts | 139° |
| 2026-04-17 11:46 | -12.33762 | -39.35110 | 23636 ft | 410 kts | 139° |
| 2026-04-17 11:47 | -12.35913 | -39.33216 | 23040 ft | 406 kts | 139° |
| 2026-04-17 11:47 | -12.38043 | -39.31341 | 22442 ft | 403 kts | 139° |
| 2026-04-17 11:47 | -12.40162 | -39.29475 | 21846 ft | 400 kts | 139° |
| 2026-04-17 11:47 | -12.42265 | -39.27624 | 21255 ft | 397 kts | 140° |
| 2026-04-17 11:48 | -12.44356 | -39.25787 | 20501 ft | 397 kts | 140° |
| 2026-04-17 11:48 | -12.46465 | -39.23947 | 19781 ft | 397 kts | 140° |
| 2026-04-17 11:48 | -12.48565 | -39.22121 | 19139 ft | 395 kts | 140° |
| 2026-04-17 11:48 | -12.50647 | -39.20310 | 18550 ft | 390 kts | 140° |
| 2026-04-17 11:49 | -12.52705 | -39.18519 | 17963 ft | 386 kts | 140° |
| 2026-04-17 11:49 | -12.54716 | -39.16766 | 17396 ft | 383 kts | 140° |
| 2026-04-17 11:49 | -12.56741 | -39.15001 | 16820 ft | 379 kts | 140° |
| 2026-04-17 11:49 | -12.58741 | -39.13257 | 16248 ft | 376 kts | 140° |
| 2026-04-17 11:50 | -12.60722 | -39.11528 | 15677 ft | 373 kts | 140° |
| 2026-04-17 11:50 | -12.62690 | -39.09810 | 15105 ft | 370 kts | 140° |
| 2026-04-17 11:50 | -12.64649 | -39.08099 | 14542 ft | 367 kts | 140° |
| 2026-04-17 11:50 | -12.66586 | -39.06408 | 13971 ft | 365 kts | 140° |
| 2026-04-17 11:51 | -12.68512 | -39.04725 | 13425 ft | 363 kts | 140° |
| 2026-04-17 11:51 | -12.70403 | -39.03074 | 12843 ft | 361 kts | 140° |
| 2026-04-17 11:51 | -12.72313 | -39.01406 | 12267 ft | 359 kts | 140° |
| 2026-04-17 11:51 | -12.74212 | -38.99744 | 11615 ft | 360 kts | 139° |
| 2026-04-17 11:52 | -12.76109 | -38.98082 | 11054 ft | 358 kts | 140° |
| 2026-04-17 11:52 | -12.77999 | -38.96425 | 10490 ft | 356 kts | 140° |
| 2026-04-17 11:52 | -12.79846 | -38.94805 | 10292 ft | 342 kts | 140° |
| 2026-04-17 11:52 | -12.81615 | -38.93253 | 10137 ft | 328 kts | 140° |
| 2026-04-17 11:53 | -12.83318 | -38.91759 | 9987 ft | 315 kts | 140° |
| 2026-04-17 11:53 | -12.84948 | -38.90330 | 9930 ft | 300 kts | 140° |
| 2026-04-17 11:53 | -12.86422 | -38.88882 | 9543 ft | 297 kts | 125° |
| 2026-04-17 11:53 | -12.87294 | -38.86954 | 9100 ft | 297 kts | 111° |
| 2026-04-17 11:54 | -12.87997 | -38.84954 | 8683 ft | 297 kts | 110° |
| 2026-04-17 11:54 | -12.88670 | -38.82968 | 8292 ft | 294 kts | 110° |
| 2026-04-17 11:54 | -12.89340 | -38.80988 | 7895 ft | 292 kts | 110° |
| 2026-04-17 11:54 | -12.90000 | -38.79056 | 7523 ft | 289 kts | 110° |
| 2026-04-17 11:55 | -12.90667 | -38.77117 | 7150 ft | 286 kts | 110° |
| 2026-04-17 11:55 | -12.91329 | -38.75204 | 6787 ft | 284 kts | 110° |
| 2026-04-17 11:55 | -12.91987 | -38.73305 | 6422 ft | 281 kts | 110° |
| 2026-04-17 11:55 | -12.92639 | -38.71427 | 6062 ft | 279 kts | 111° |
| 2026-04-17 11:56 | -12.92859 | -38.70796 | 5933 ft | 278 kts | 111° |
| 2026-04-17 11:56 | -12.92969 | -38.70479 | 5880 ft | 277 kts | 111° |
| 2026-04-17 11:57 | -12.93433 | -38.69142 | 5627 ft | 275 kts | 110° |
| 2026-04-17 11:57 | -12.94074 | -38.67300 | 5275 ft | 273 kts | 110° |
| 2026-04-17 11:57 | -12.94705 | -38.65487 | 4940 ft | 265 kts | 110° |
| 2026-04-17 11:57 | -12.95300 | -38.63773 | 4834 ft | 245 kts | 110° |
| 2026-04-17 11:58 | -12.95846 | -38.62200 | 4692 ft | 225 kts | 111° |
| 2026-04-17 11:58 | -12.96261 | -38.60726 | 4529 ft | 208 kts | 94° |
| 2026-04-17 11:58 | -12.96141 | -38.59308 | 4441 ft | 192 kts | 84° |
| 2026-04-17 11:58 | -12.95953 | -38.57997 | 4318 ft | 179 kts | 82° |
| 2026-04-17 11:59 | -12.95737 | -38.56761 | 4083 ft | 174 kts | 81° |
| 2026-04-17 11:59 | -12.95506 | -38.55546 | 3792 ft | 173 kts | 81° |
| 2026-04-17 11:59 | -12.95270 | -38.54341 | 3487 ft | 171 kts | 80° |
| 2026-04-17 11:59 | -12.95032 | -38.53148 | 3194 ft | 170 kts | 80° |
| 2026-04-17 12:00 | -12.94798 | -38.51976 | 2973 ft | 166 kts | 80° |
| 2026-04-17 12:00 | -12.94567 | -38.50823 | 2822 ft | 165 kts | 80° |
| 2026-04-17 12:00 | -12.94334 | -38.49659 | 2682 ft | 168 kts | 80° |
| 2026-04-17 12:00 | -12.94098 | -38.48476 | 2517 ft | 170 kts | 80° |
| 2026-04-17 12:01 | -12.93865 | -38.47315 | 2368 ft | 161 kts | 80° |
| 2026-04-17 12:01 | -12.93652 | -38.46251 | 2329 ft | 144 kts | 80° |
| 2026-04-17 12:01 | -12.93454 | -38.45258 | 2277 ft | 141 kts | 81° |
| 2026-04-17 12:01 | -12.93257 | -38.44279 | 2138 ft | 144 kts | 81° |
| 2026-04-17 12:02 | -12.93057 | -38.43271 | 1942 ft | 143 kts | 80° |
| 2026-04-17 12:02 | -12.92860 | -38.42285 | 1745 ft | 139 kts | 81° |
| 2026-04-17 12:02 | -12.92666 | -38.41311 | 1581 ft | 141 kts | 81° |
| 2026-04-17 12:02 | -12.92468 | -38.40322 | 1385 ft | 141 kts | 80° |
| 2026-04-17 12:03 | -12.92273 | -38.39342 | 1199 ft | 140 kts | 81° |
| 2026-04-17 12:03 | -12.92078 | -38.38367 | 1021 ft | 139 kts | 81° |
| 2026-04-17 12:03 | -12.91882 | -38.37388 | 831 ft | 141 kts | 81° |
| 2026-04-17 12:03 | -12.91688 | -38.36409 | 651 ft | 140 kts | 81° |
| 2026-04-17 12:04 | -12.91491 | -38.35437 | 466 ft | 139 kts | 80° |
| 2026-04-17 12:04 | -12.91301 | -38.34465 | 261 ft | 138 kts | 81° |
| 2026-04-17 12:04 | -12.91106 | -38.33507 | 63 ft | 137 kts | 80° |
| 2026-04-17 12:04 | -12.90930 | -38.32621 | 51 ft | 108 kts | 78° |
| 2026-04-17 12:05 | -12.90810 | -38.32018 | 46 ft | 65 kts | 78° |
| 2026-04-17 12:05 | -12.90769 | -38.31765 | 47 ft | 13 kts | 106° |
| 2026-04-17 12:05 | -12.90840 | -38.31715 | 49 ft | 13 kts | 168° |
| 2026-04-17 12:05 | -12.90914 | -38.31743 | 50 ft | 13 kts | 244° |
| 2026-04-17 12:06 | -12.90930 | -38.31830 | 52 ft | 12 kts | 258° |
| 2026-04-17 12:06 | -12.90947 | -38.31914 | 51 ft | 12 kts | 258° |
| 2026-04-17 12:06 | -12.90964 | -38.31996 | 52 ft | 12 kts | 258° |
| 2026-04-17 12:06 | -12.90979 | -38.32076 | 51 ft | 11 kts | 258° |
| 2026-04-17 12:07 | -12.90997 | -38.32159 | 52 ft | 13 kts | 258° |
| 2026-04-17 12:07 | -12.91018 | -38.32258 | 50 ft | 15 kts | 257° |
| 2026-04-17 12:07 | -12.91042 | -38.32371 | 51 ft | 17 kts | 257° |
| 2026-04-17 12:07 | -12.91064 | -38.32492 | 52 ft | 17 kts | 258° |
| 2026-04-17 12:08 | -12.91086 | -38.32607 | 51 ft | 16 kts | 258° |
| 2026-04-17 12:08 | -12.91108 | -38.32718 | 49 ft | 16 kts | 258° |
| 2026-04-17 12:08 | -12.91130 | -38.32825 | 46 ft | 15 kts | 258° |
| 2026-04-17 12:08 | -12.91150 | -38.32927 | 46 ft | 14 kts | 258° |
| 2026-04-17 12:09 | -12.91170 | -38.33025 | 44 ft | 14 kts | 258° |
| 2026-04-17 12:09 | -12.91189 | -38.33118 | 40 ft | 13 kts | 258° |
| 2026-04-17 12:09 | -12.91239 | -38.33179 | 41 ft | 13 kts | 176° |
| 2026-04-17 12:09 | -12.91325 | -38.33161 | 41 ft | 12 kts | 168° |
| 2026-04-17 12:10 | -12.91346 | -38.33184 | 43 ft | 5 kts | 257° |
| 2026-04-17 12:10 | -12.91357 | -38.33214 | 43 ft | 5 kts | 249° |
| 2026-04-17 12:10 | -12.91357 | -38.33216 | 43 ft | 0 kts | 249° |